Time;durP1;ratioP1;P1;durP2;ratioP2;P2;SDS_P1;SDS_P2;PMS_P1;PMS_P2;Temp;Humidity;BMP_temperature;BMP_pressure;BME280_temperature;BME280_humidity;BME280_pressure;Samples;Min_cycle;Max_cycle;Signal;HPM_P1;HPM_P2
2022/01/31 00:01:02;;;;;;;13.40;4.30;;;;;;;2.29;72.37;99152.36;130286;1268;108810;-78
2022/01/31 00:04:08;;;;;;;13.00;3.00;;;;;;;2.30;72.52;99155.27;130249;1268;108967;-77
2022/01/31 00:07:13;;;;;;;9.70;3.00;;;;;;;2.26;72.68;99157.68;130288;1267;108721;-77
2022/01/31 00:10:27;;;;;;;9.90;2.50;;;;;;;2.24;72.99;99158.21;130314;1267;107738;-77
2022/01/31 00:13:36;;;;;;;14.30;5.10;;;;;;;2.25;72.55;99170.81;130315;1267;108853;-75
2022/01/31 00:16:41;;;;;;;15.60;5.20;;;;;;;2.26;72.57;99178.62;130301;1267;109559;-75
2022/01/31 00:19:47;;;;;;;12.70;2.80;;;;;;;2.24;72.57;99170.49;130310;1267;108782;-77
2022/01/31 00:22:52;;;;;;;9.50;2.60;;;;;;;2.24;72.89;99169.96;130297;1267;108669;-77
2022/01/31 00:25:58;;;;;;;13.60;3.40;;;;;;;2.23;72.92;99181.79;130340;1267;108833;-77
2022/01/31 00:29:03;;;;;;;12.30;2.90;;;;;;;2.20;73.05;99181.19;130332;1267;108694;-76
2022/01/31 00:32:09;;;;;;;12.70;2.80;;;;;;;2.15;73.21;99177.37;130275;1268;109188;-77
2022/01/31 00:35:15;;;;;;;10.00;3.00;;;;;;;2.16;73.26;99175.39;130273;1268;108747;-78
2022/01/31 00:38:21;;;;;;;10.80;2.70;;;;;;;2.19;73.43;99179.17;130337;1267;108747;-77
2022/01/31 00:41:26;;;;;;;14.00;2.90;;;;;;;2.20;73.39;99188.41;130292;1268;108920;-77
2022/01/31 00:44:41;;;;;;;15.10;3.40;;;;;;;2.16;73.10;99185.23;130295;1267;108976;-77
2022/01/31 00:47:50;;;;;;;8.80;2.70;;;;;;;2.13;73.25;99188.77;130301;1267;108861;-76
2022/01/31 00:50:55;;;;;;;14.30;3.20;;;;;;;2.09;73.38;99186.88;130262;1267;108753;-77
2022/01/31 00:54:01;;;;;;;10.60;2.40;;;;;;;2.03;73.44;99191.03;130319;1267;109111;-74
2022/01/31 00:57:07;;;;;;;9.40;2.70;;;;;;;2.00;73.54;99209.20;130270;1268;108810;-75
2022/01/31 01:00:14;;;;;;;11.10;2.80;;;;;;;2.01;73.52;99210.34;130326;1266;108898;-76
2022/01/31 01:03:21;;;;;;;9.30;2.60;;;;;;;2.00;73.52;99210.70;130316;1268;108914;-75
2022/01/31 01:06:26;;;;;;;8.60;2.70;;;;;;;1.96;73.34;99222.27;130355;1267;109053;-76
2022/01/31 01:09:31;;;;;;;10.30;2.70;;;;;;;1.92;73.48;99211.11;130353;1268;108863;-76
2022/01/31 01:12:37;;;;;;;9.70;2.40;;;;;;;1.88;73.85;99207.08;130328;1268;108652;-77
2022/01/31 01:15:42;;;;;;;15.20;3.90;;;;;;;1.87;73.81;99205.62;130292;1267;108783;-76
2022/01/31 01:18:48;;;;;;;11.40;3.10;;;;;;;1.91;74.02;99211.97;130312;1268;108707;-79
2022/01/31 01:21:54;;;;;;;11.10;2.70;;;;;;;1.89;73.91;99213.14;130338;1268;108785;-78
2022/01/31 01:25:02;;;;;;;11.00;2.40;;;;;;;1.85;74.18;99215.77;130310;1268;108931;-77
2022/01/31 01:28:08;;;;;;;12.80;2.70;;;;;;;1.83;73.87;99225.09;130261;1268;108860;-78
2022/01/31 01:31:14;;;;;;;12.40;2.60;;;;;;;1.76;74.11;99222.05;130280;1268;108699;-77
2022/01/31 01:34:23;;;;;;;8.90;2.50;;;;;;;1.71;74.11;99215.29;130290;1268;108741;-77
2022/01/31 01:37:30;;;;;;;16.30;3.60;;;;;;;1.71;74.17;99206.04;130276;1268;108411;-75
2022/01/31 01:40:37;;;;;;;15.70;3.80;;;;;;;1.72;74.38;99203.46;130263;1268;108481;-74
2022/01/31 01:43:42;;;;;;;15.60;3.40;;;;;;;1.72;74.30;99217.52;130335;1267;108872;-74
2022/01/31 01:46:48;;;;;;;15.50;2.90;;;;;;;1.69;74.38;99213.55;130308;1267;108807;-74
2022/01/31 01:49:54;;;;;;;14.70;3.10;;;;;;;1.62;74.52;99223.60;130364;1268;108771;-75
2022/01/31 01:53:04;;;;;;;9.90;2.80;;;;;;;1.59;74.68;99218.92;130383;1267;108967;-75
2022/01/31 01:56:10;;;;;;;11.40;2.70;;;;;;;1.58;74.46;99215.44;130375;1266;108850;-76
2022/01/31 01:59:17;;;;;;;11.80;2.70;;;;;;;1.56;74.45;99212.07;130285;1267;108910;-76
2022/01/31 02:02:57;;;;;;;10.90;2.90;;;;;;;1.52;74.53;99210.98;130278;1267;107522;-75
2022/01/31 02:06:04;;;;;;;10.50;2.80;;;;;;;1.49;74.53;99209.70;130324;1267;108714;-75
2022/01/31 02:09:09;;;;;;;10.40;2.90;;;;;;;1.49;74.70;99214.27;130244;1268;108900;-76
2022/01/31 02:12:15;;;;;;;15.20;2.90;;;;;;;1.47;74.63;99202.09;130239;1268;108763;-75
2022/01/31 02:15:24;;;;;;;16.90;2.80;;;;;;;1.46;74.79;99197.13;130318;1267;108793;-74
2022/01/31 02:18:51;;;;;;;11.40;2.70;;;;;;;1.47;74.62;99198.26;130392;1267;108823;-76
2022/01/31 02:22:17;;;;;;;13.40;2.60;;;;;;;1.46;74.61;99190.08;129937;1267;110109;-76
2022/01/31 02:26:01;;;;;;;8.70;2.50;;;;;;;1.45;74.75;99190.05;130349;1268;108899;-77
2022/01/31 02:29:27;;;;;;;12.30;3.00;;;;;;;1.42;74.56;99193.26;130294;1268;108985;-75
2022/01/31 02:32:34;;;;;;;17.30;3.30;;;;;;;1.43;74.49;99186.69;130252;1268;107902;-76
2022/01/31 02:35:40;;;;;;;11.80;2.70;;;;;;;1.45;74.61;99190.37;130330;1267;108958;-75
2022/01/31 02:38:46;;;;;;;12.10;3.70;;;;;;;1.46;74.65;99187.30;130170;1268;109169;-74
2022/01/31 02:41:51;;;;;;;13.10;3.20;;;;;;;1.43;74.71;99194.55;130246;1268;108745;-74
2022/01/31 02:44:58;;;;;;;16.90;6.00;;;;;;;1.38;74.86;99187.44;130337;1267;108880;-75
2022/01/31 02:48:04;;;;;;;12.90;3.40;;;;;;;1.43;74.92;99197.38;130248;1267;108844;-74
2022/01/31 02:51:12;;;;;;;17.80;5.20;;;;;;;1.45;74.98;99192.67;130382;1267;108770;-75
2022/01/31 02:54:18;;;;;;;42.50;17.40;;;;;;;1.47;74.86;99198.78;130268;1268;109346;-76
2022/01/31 02:57:23;;;;;;;20.00;7.80;;;;;;;1.47;75.03;99189.86;130251;1267;109096;-76
2022/01/31 03:00:29;;;;;;;39.70;15.90;;;;;;;1.49;75.04;99195.80;130280;1267;108766;-77
2022/01/31 03:03:52;;;;;;;24.40;11.60;;;;;;;1.46;75.09;99192.05;130261;1268;108936;-77
2022/01/31 03:06:57;;;;;;;32.90;15.20;;;;;;;1.43;75.26;99205.09;130353;1268;108825;-77
2022/01/31 03:10:04;;;;;;;19.00;6.90;;;;;;;1.40;75.37;99207.09;130335;1267;108876;-76
2022/01/31 03:13:10;;;;;;;40.80;18.60;;;;;;;1.43;75.44;99208.09;130402;1267;108865;-77
2022/01/31 03:16:20;;;;;;;25.50;11.10;;;;;;;1.46;75.24;99216.45;130317;1267;108777;-76
2022/01/31 03:19:52;;;;;;;37.00;16.90;;;;;;;1.45;75.26;99218.40;130309;1267;109203;-76
2022/01/31 03:22:57;;;;;;;30.80;12.80;;;;;;;1.42;75.30;99223.52;130087;1268;109029;-75
2022/01/31 03:26:03;;;;;;;13.90;4.30;;;;;;;1.33;75.34;99229.15;130263;1268;108846;-76
2022/01/31 03:29:09;;;;;;;19.60;5.00;;;;;;;1.20;75.63;99228.24;130315;1267;109003;-75
2022/01/31 03:32:14;;;;;;;15.00;3.40;;;;;;;1.15;75.84;99233.02;130225;1268;108653;-76
2022/01/31 03:35:20;;;;;;;15.30;3.20;;;;;;;1.11;75.95;99229.79;130304;1267;108512;-77
2022/01/31 03:38:26;;;;;;;18.30;3.40;;;;;;;1.08;76.24;99222.69;130290;1267;108686;-75
2022/01/31 03:41:32;;;;;;;17.70;3.40;;;;;;;1.09;76.03;99221.73;130217;1267;108952;-76
2022/01/31 03:44:37;;;;;;;13.50;3.70;;;;;;;1.04;76.17;99225.08;130314;1267;108577;-76
2022/01/31 03:47:46;;;;;;;16.70;2.80;;;;;;;0.98;76.06;99217.81;130344;1267;107377;-75
2022/01/31 03:50:52;;;;;;;15.50;2.90;;;;;;;0.92;76.67;99222.52;130343;1267;108730;-76
2022/01/31 03:53:59;;;;;;;11.30;2.70;;;;;;;0.84;76.84;99213.85;130258;1268;108960;-75
2022/01/31 03:57:06;;;;;;;12.40;3.30;;;;;;;0.83;76.57;99205.35;130337;1267;108772;-75
2022/01/31 04:00:27;;;;;;;17.30;3.30;;;;;;;0.82;76.73;99205.56;130346;1267;108746;-74
2022/01/31 04:03:34;;;;;;;12.50;3.30;;;;;;;0.83;76.79;99202.55;130385;1267;108658;-74
2022/01/31 04:06:40;;;;;;;12.20;2.70;;;;;;;0.79;76.91;99193.58;130311;1267;108513;-74
2022/01/31 04:09:45;;;;;;;12.80;3.00;;;;;;;0.80;76.70;99187.18;130360;1267;109077;-74
2022/01/31 04:12:51;;;;;;;14.50;4.30;;;;;;;0.82;76.69;99188.42;130239;1268;108538;-75
2022/01/31 04:15:56;;;;;;;11.60;3.50;;;;;;;0.91;76.62;99183.38;130371;1267;108989;-75
2022/01/31 04:19:02;;;;;;;15.20;3.40;;;;;;;0.98;76.38;99181.61;130343;1267;108934;-76
2022/01/31 04:22:11;;;;;;;10.30;3.60;;;;;;;0.98;76.16;99178.81;130332;1267;108864;-76
2022/01/31 04:25:28;;;;;;;12.00;2.80;;;;;;;0.98;76.05;99181.59;130349;1266;108888;-76
2022/01/31 04:28:41;;;;;;;13.90;2.90;;;;;;;0.93;76.13;99179.69;130342;1267;108800;-76
2022/01/31 04:31:49;;;;;;;11.90;2.50;;;;;;;0.88;76.40;99172.93;130337;1267;108799;-76
2022/01/31 04:34:54;;;;;;;12.50;2.80;;;;;;;0.78;76.57;99168.05;130322;1267;106674;-75
2022/01/31 04:38:00;;;;;;;13.90;3.20;;;;;;;0.73;76.92;99183.31;130344;1267;108825;-76
2022/01/31 04:41:06;;;;;;;11.30;2.70;;;;;;;0.77;76.63;99163.20;130308;1267;108788;-75
2022/01/31 04:44:12;;;;;;;13.50;2.90;;;;;;;0.79;76.67;99169.52;130327;1267;109009;-76
2022/01/31 04:47:17;;;;;;;16.20;3.30;;;;;;;0.76;76.64;99164.73;130377;1268;108957;-74
2022/01/31 04:50:22;;;;;;;14.20;3.40;;;;;;;0.72;76.77;99161.89;130407;1267;108944;-76
2022/01/31 04:53:28;;;;;;;13.20;3.50;;;;;;;0.66;76.94;99156.91;130405;1268;107321;-77
2022/01/31 04:56:36;;;;;;;11.70;2.50;;;;;;;0.63;76.93;99161.54;130404;1268;108851;-77
2022/01/31 04:59:43;;;;;;;13.80;3.50;;;;;;;0.62;76.90;99151.30;130380;1267;109060;-77
2022/01/31 05:02:49;;;;;;;17.30;3.50;;;;;;;0.60;77.11;99153.83;130298;1268;109135;-77
2022/01/31 05:05:54;;;;;;;15.50;4.40;;;;;;;0.60;77.24;99158.59;130282;1268;106638;-79
2022/01/31 05:08:59;;;;;;;12.70;3.60;;;;;;;0.56;77.20;99152.77;130409;1268;109016;-79
2022/01/31 05:12:07;;;;;;;12.00;3.30;;;;;;;0.56;77.00;99148.36;130297;1268;108756;-80
2022/01/31 05:15:12;;;;;;;17.20;3.90;;;;;;;0.57;77.31;99144.94;130346;1268;108881;-79
2022/01/31 05:18:18;;;;;;;14.20;3.20;;;;;;;0.56;77.34;99140.53;130684;1266;106779;-83
2022/01/31 05:21:23;;;;;;;18.60;3.90;;;;;;;0.53;77.21;99136.52;130757;1267;108761;-80
2022/01/31 05:24:29;;;;;;;17.20;4.10;;;;;;;0.50;77.18;99131.91;130421;1268;108823;-77
2022/01/31 05:27:34;;;;;;;29.40;10.50;;;;;;;0.47;77.34;99128.23;130604;1267;108680;-77
2022/01/31 05:30:39;;;;;;;15.80;3.90;;;;;;;0.47;77.41;99131.59;130336;1267;109037;-77
2022/01/31 05:33:45;;;;;;;24.30;8.90;;;;;;;0.46;77.51;99124.84;130236;1268;108698;-77
2022/01/31 05:36:54;;;;;;;56.20;24.30;;;;;;;0.42;77.44;99116.58;130324;1267;108857;-76
2022/01/31 05:39:59;;;;;;;20.30;5.40;;;;;;;0.38;77.59;99109.48;130370;1268;107907;-78
2022/01/31 05:43:05;;;;;;;19.50;4.60;;;;;;;0.35;77.66;99106.44;130342;1267;109083;-77
2022/01/31 05:46:11;;;;;;;33.90;14.60;;;;;;;0.33;77.48;99102.36;130294;1268;106678;-77
2022/01/31 05:49:16;;;;;;;44.40;19.80;;;;;;;0.37;77.63;99098.91;130414;1268;108869;-77
2022/01/31 05:52:21;;;;;;;22.90;9.30;;;;;;;0.41;77.75;99097.73;130470;1267;107487;-78
2022/01/31 05:55:27;;;;;;;30.30;10.60;;;;;;;0.41;77.67;99100.02;130378;1268;108746;-77
2022/01/31 05:58:33;;;;;;;49.30;22.30;;;;;;;0.44;77.65;99097.20;130369;1267;108743;-77
2022/01/31 06:01:39;;;;;;;32.70;12.60;;;;;;;0.49;77.74;99099.55;130450;1267;108794;-76
2022/01/31 06:04:44;;;;;;;17.40;4.30;;;;;;;0.48;77.84;99100.14;130388;1267;107210;-79
2022/01/31 06:07:50;;;;;;;23.00;6.80;;;;;;;0.44;78.26;99097.02;130381;1268;108663;-80
2022/01/31 06:10:55;;;;;;;13.30;3.90;;;;;;;0.46;77.96;99099.64;130517;1268;108785;-80
2022/01/31 06:14:01;;;;;;;22.40;7.80;;;;;;;0.54;77.89;99101.46;130269;1268;108886;-78
2022/01/31 06:17:07;;;;;;;21.60;6.00;;;;;;;0.55;77.93;99098.58;130409;1267;108585;-78
2022/01/31 06:20:13;;;;;;;147.00;56.50;;;;;;;0.55;77.85;99095.48;130406;1267;108970;-80
2022/01/31 06:23:18;;;;;;;22.30;6.90;;;;;;;0.58;78.04;99099.08;130845;1267;107692;-82
2022/01/31 06:26:24;;;;;;;36.90;13.30;;;;;;;0.58;77.98;99093.67;130433;1267;108884;-86
2022/01/31 06:29:47;;;;;;;115.70;43.30;;;;;;;0.65;77.92;99095.20;130377;1267;108707;-77
2022/01/31 06:32:57;;;;;;;25.80;8.80;;;;;;;0.67;77.80;99098.37;130419;1267;108873;-78
2022/01/31 06:36:03;;;;;;;38.60;14.30;;;;;;;0.65;77.90;99097.46;130401;1267;108745;-79
2022/01/31 06:39:08;;;;;;;66.00;26.30;;;;;;;0.60;77.90;99096.79;130515;1267;108872;-81
2022/01/31 06:42:14;;;;;;;99.60;40.80;;;;;;;0.56;77.95;99100.09;130387;1267;107483;-80
2022/01/31 06:45:20;;;;;;;22.80;6.50;;;;;;;0.53;77.88;99096.84;130412;1267;108742;-78
2022/01/31 06:48:26;;;;;;;24.60;8.10;;;;;;;0.46;77.89;99098.04;130614;1267;107670;-84
2022/01/31 06:51:32;;;;;;;14.90;5.20;;;;;;;0.43;78.06;99102.69;130477;1267;108757;-81
2022/01/31 06:54:37;;;;;;;21.20;6.80;;;;;;;0.41;78.08;99100.71;130385;1267;108930;-77
2022/01/31 06:57:43;;;;;;;18.80;5.20;;;;;;;0.41;78.02;99095.46;130284;1268;108698;-80
2022/01/31 07:00:49;;;;;;;16.70;5.30;;;;;;;0.44;77.83;99086.71;130515;1267;108715;-82
2022/01/31 07:03:55;;;;;;;15.90;6.90;;;;;;;0.46;77.83;99086.18;130442;1267;108965;-79
2022/01/31 07:07:01;;;;;;;16.40;4.90;;;;;;;0.49;77.80;99083.88;130429;1267;108934;-78
2022/01/31 07:10:09;;;;;;;15.50;6.20;;;;;;;0.43;77.84;99080.44;130800;1267;108790;-79
2022/01/31 07:13:24;;;;;;;13.70;4.30;;;;;;;0.50;77.88;99076.59;130279;1268;108826;-80
2022/01/31 07:16:30;;;;;;;14.20;5.60;;;;;;;0.61;77.71;99074.99;130341;1267;109776;-77
2022/01/31 07:19:39;;;;;;;19.30;5.80;;;;;;;0.74;77.75;99068.09;130509;1267;108507;-79
2022/01/31 07:22:50;;;;;;;17.60;4.60;;;;;;;0.78;77.20;99072.62;130519;1267;108670;-80
2022/01/31 07:25:56;;;;;;;18.00;4.60;;;;;;;0.79;77.31;99068.37;130362;1267;108515;-79
2022/01/31 07:29:01;;;;;;;15.70;6.00;;;;;;;0.81;77.42;99068.28;130455;1268;109025;-80
2022/01/31 07:32:10;;;;;;;14.80;4.90;;;;;;;0.86;77.41;99071.04;130386;1267;108608;-80
2022/01/31 07:35:17;;;;;;;19.30;5.20;;;;;;;0.81;77.31;99073.34;130335;1269;107603;-80
2022/01/31 07:38:22;;;;;;;13.40;4.50;;;;;;;0.78;77.62;99068.43;130438;1269;108811;-82
2022/01/31 07:41:28;;;;;;;15.00;4.20;;;;;;;0.83;77.65;99066.52;130243;1268;108698;-78
2022/01/31 07:44:33;;;;;;;18.30;5.20;;;;;;;0.92;77.60;99052.17;130736;1268;108702;-80
2022/01/31 07:47:39;;;;;;;18.30;5.80;;;;;;;1.04;77.41;99045.62;130626;1267;109056;-87
2022/01/31 07:50:45;;;;;;;27.50;9.20;;;;;;;1.07;77.20;99043.58;130848;1267;108759;-81
2022/01/31 07:53:50;;;;;;;21.60;6.90;;;;;;;1.11;77.19;99040.85;130764;1268;108655;-81
2022/01/31 07:56:57;;;;;;;16.90;5.80;;;;;;;1.13;77.14;99033.09;130763;1268;108949;-78
2022/01/31 08:00:04;;;;;;;18.90;5.40;;;;;;;1.11;77.05;99026.47;130392;1269;155051;-81
2022/01/31 08:03:17;;;;;;;13.60;4.70;;;;;;;1.02;76.94;99023.31;130482;1270;108870;-81
2022/01/31 08:06:23;;;;;;;17.30;4.90;;;;;;;0.99;76.91;99028.64;130870;1268;108649;-84
2022/01/31 08:09:28;;;;;;;15.60;6.10;;;;;;;1.01;77.05;99026.19;130887;1267;108798;-81
2022/01/31 08:12:36;;;;;;;18.80;5.90;;;;;;;1.11;76.89;99027.46;130753;1267;108662;-86
2022/01/31 08:15:48;;;;;;;17.00;5.00;;;;;;;1.17;76.87;99026.53;130795;1268;108898;-81
2022/01/31 08:18:53;;;;;;;18.60;4.90;;;;;;;1.23;76.70;99018.20;130290;1270;108665;-81
2022/01/31 08:21:59;;;;;;;14.10;5.40;;;;;;;1.22;76.61;99012.13;130653;1268;108696;-86
2022/01/31 08:25:05;;;;;;;16.80;5.20;;;;;;;1.21;76.44;99016.78;130591;1269;108743;-80
2022/01/31 08:28:12;;;;;;;17.10;4.60;;;;;;;1.15;76.27;99015.28;130616;1267;106876;-77
2022/01/31 08:31:22;;;;;;;19.80;6.00;;;;;;;1.10;76.72;99018.64;130454;1269;109703;-78
2022/01/31 08:37:47;;;;;;;46.20;22.00;;;;;;;1.19;76.49;99007.59;130751;1268;108633;-78
2022/01/31 08:40:52;;;;;;;22.80;7.30;;;;;;;1.30;76.74;99003.73;130667;1268;108771;-78
2022/01/31 08:43:57;;;;;;;17.20;5.30;;;;;;;1.44;76.45;99005.58;130296;1269;108948;-78
2022/01/31 08:47:04;;;;;;;24.40;9.20;;;;;;;1.48;76.10;99001.76;130563;1267;108999;-74
2022/01/31 08:50:11;;;;;;;32.30;13.60;;;;;;;1.50;75.99;99000.85;130530;1267;108816;-80
2022/01/31 08:53:17;;;;;;;18.90;6.60;;;;;;;1.49;75.87;99007.25;130406;1270;108891;-78
2022/01/31 08:56:22;;;;;;;19.70;6.00;;;;;;;1.45;75.67;99009.36;130531;1267;108820;-78
2022/01/31 08:59:28;;;;;;;32.60;12.50;;;;;;;1.34;76.02;99006.37;130307;1268;109029;-77
2022/01/31 09:02:39;;;;;;;26.70;8.50;;;;;;;1.39;76.34;99001.56;130409;1267;108563;-77
2022/01/31 09:05:45;;;;;;;14.40;4.90;;;;;;;1.45;75.70;98998.15;130554;1267;108547;-80
2022/01/31 09:08:51;;;;;;;18.70;6.90;;;;;;;1.43;75.56;99006.73;131200;1267;108865;-83
2022/01/31 09:11:57;;;;;;;18.40;6.70;;;;;;;1.52;75.94;98997.73;130766;1267;108714;-83
2022/01/31 09:15:05;;;;;;;18.60;7.90;;;;;;;1.69;76.22;98989.37;130681;1267;108734;-80
2022/01/31 09:18:10;;;;;;;22.80;10.00;;;;;;;1.80;75.84;98989.27;130483;1268;108486;-82
2022/01/31 09:21:16;;;;;;;38.80;22.20;;;;;;;1.93;75.91;98986.23;130533;1268;108867;-80
2022/01/31 09:24:21;;;;;;;25.10;9.10;;;;;;;1.98;75.12;98987.59;130707;1267;108629;-78
2022/01/31 09:27:27;;;;;;;26.50;10.70;;;;;;;1.95;75.80;98981.91;131759;1267;108680;-73
2022/01/31 09:30:33;;;;;;;65.30;29.00;;;;;;;1.98;75.31;98973.60;130476;1268;108840;-76
2022/01/31 09:33:38;;;;;;;13.70;4.80;;;;;;;1.94;74.71;98977.40;130559;1268;108971;-86
2022/01/31 09:36:44;;;;;;;21.70;6.80;;;;;;;1.87;74.63;98969.96;130736;1268;108852;-85
2022/01/31 09:39:49;;;;;;;18.30;5.20;;;;;;;1.90;75.39;98965.83;130428;1268;106964;-86
2022/01/31 09:43:29;;;;;;;18.00;5.90;;;;;;;1.98;74.62;98966.02;130333;1268;108799;-81
2022/01/31 09:46:48;;;;;;;17.00;5.40;;;;;;;2.03;74.68;98959.30;130427;1268;108531;-85
2022/01/31 09:49:54;;;;;;;21.60;8.20;;;;;;;1.95;74.20;98956.61;130372;1270;108726;-73
2022/01/31 09:52:59;;;;;;;21.60;9.50;;;;;;;1.94;74.03;98950.27;130335;1268;108787;-76
2022/01/31 09:56:08;;;;;;;21.60;10.30;;;;;;;1.91;74.85;98943.15;130209;1269;108884;-75
2022/01/31 09:59:16;;;;;;;22.90;7.00;;;;;;;1.88;74.07;98943.51;130233;1268;109680;-73
2022/01/31 10:02:22;;;;;;;20.40;5.90;;;;;;;1.79;74.15;98939.91;130309;1271;108753;-75
2022/01/31 10:05:30;;;;;;;16.20;5.30;;;;;;;1.76;74.37;98933.02;130231;1268;108649;-76
2022/01/31 10:08:36;;;;;;;17.70;5.00;;;;;;;1.75;74.28;98931.35;130320;1268;108952;-77
2022/01/31 10:11:48;;;;;;;17.00;5.90;;;;;;;1.73;74.21;98929.90;130281;1268;108684;-75
2022/01/31 10:18:16;;;;;;;62.30;22.00;;;;;;;1.73;74.25;98926.08;130329;1268;108653;-75
2022/01/31 10:21:22;;;;;;;32.80;10.40;;;;;;;1.81;74.34;98917.69;130428;1268;108703;-79
2022/01/31 10:24:29;;;;;;;22.30;6.90;;;;;;;1.86;74.51;98917.61;130529;1268;108696;-76
2022/01/31 10:27:36;;;;;;;29.00;10.80;;;;;;;1.92;74.47;98914.78;130464;1268;108854;-78
2022/01/31 10:30:43;;;;;;;16.00;7.10;;;;;;;2.07;74.63;98911.77;130563;1267;109013;-79
2022/01/31 10:34:21;;;;;;;14.20;5.10;;;;;;;2.25;74.06;98908.26;130743;1268;108801;-83
2022/01/31 10:37:29;;;;;;;12.60;4.50;;;;;;;2.24;72.62;98908.88;130826;1268;108794;-84
2022/01/31 10:44:55;;;;;;;12.50;4.70;;;;;;;2.21;72.14;98897.06;130477;1268;109140;-78
2022/01/31 10:51:55;;;;;;;11.60;4.30;;;;;;;2.19;71.81;98894.62;130770;1267;108779;-76
2022/01/31 10:58:52;;;;;;;15.70;4.70;;;;;;;2.16;70.92;98886.80;125795;1311;635483;-76
2022/01/31 11:02:00;;;;;;;17.10;6.40;;;;;;;2.15;70.56;98880.05;129396;1282;108922;-76
2022/01/31 11:05:22;;;;;;;23.70;7.80;;;;;;;2.11;69.53;98884.62;129220;1282;108726;-76
2022/01/31 11:08:28;;;;;;;25.80;7.80;;;;;;;2.05;69.17;98878.66;129259;1281;108861;-75
2022/01/31 11:11:35;;;;;;;21.40;6.60;;;;;;;2.06;70.08;98877.63;129119;1279;189906;-77
2022/01/31 11:14:42;;;;;;;18.70;6.10;;;;;;;2.09;69.47;98879.33;129654;1278;108627;-76
2022/01/31 11:18:02;;;;;;;19.70;7.30;;;;;;;2.11;69.76;98873.58;129972;1275;108646;-74
2022/01/31 11:21:09;;;;;;;19.50;7.10;;;;;;;2.16;70.33;98870.79;129797;1276;108772;-72
2022/01/31 11:24:22;;;;;;;18.50;5.90;;;;;;;2.25;70.66;98873.92;129844;1274;108591;-74
2022/01/31 11:27:30;;;;;;;13.50;4.50;;;;;;;2.36;70.33;98871.35;129982;1276;108625;-74
2022/01/31 11:30:36;;;;;;;13.40;4.70;;;;;;;2.50;70.74;98868.91;129685;1276;108774;-73
2022/01/31 11:33:42;;;;;;;12.90;3.70;;;;;;;2.59;69.54;98872.14;129640;1276;107816;-74
2022/01/31 11:36:47;;;;;;;12.70;3.50;;;;;;;2.59;68.61;98877.44;129633;1276;108899;-71
2022/01/31 11:39:57;;;;;;;9.20;3.50;;;;;;;2.57;68.04;98885.31;129717;1276;108754;-71
2022/01/31 11:43:04;;;;;;;12.00;3.70;;;;;;;2.53;68.47;98882.30;129871;1274;108865;-74
2022/01/31 11:46:10;;;;;;;12.70;4.30;;;;;;;2.45;67.38;98883.73;130403;1270;108734;-75
2022/01/31 11:49:16;;;;;;;17.20;5.50;;;;;;;2.38;67.55;98883.15;130371;1270;108722;-73
2022/01/31 11:52:23;;;;;;;10.40;4.10;;;;;;;2.41;68.68;98877.32;130391;1270;108781;-72
2022/01/31 11:55:33;;;;;;;15.80;4.60;;;;;;;2.46;68.77;98872.79;130360;1269;108811;-74
2022/01/31 11:58:46;;;;;;;11.90;3.40;;;;;;;2.53;68.65;98867.95;130486;1270;108859;-74
2022/01/31 12:01:54;;;;;;;15.10;5.60;;;;;;;2.58;68.59;98866.92;130409;1270;108681;-72
2022/01/31 12:05:03;;;;;;;19.70;7.80;;;;;;;2.57;68.37;98868.79;130370;1270;108828;-74
2022/01/31 12:08:14;;;;;;;14.50;5.10;;;;;;;2.57;67.60;98871.25;130466;1270;108696;-74
2022/01/31 12:11:26;;;;;;;19.40;6.90;;;;;;;2.49;67.49;98866.71;130489;1270;108856;-73
2022/01/31 12:14:48;;;;;;;35.90;14.90;;;;;;;2.46;68.82;98862.03;130331;1270;107804;-75
2022/01/31 12:18:06;;;;;;;26.00;11.10;;;;;;;2.59;68.82;98867.63;130299;1270;109564;-75
2022/01/31 12:24:43;;;;;;;28.10;11.80;;;;;;;2.50;67.14;98859.63;130877;1270;108644;-76
2022/01/31 12:27:48;;;;;;;14.70;6.30;;;;;;;2.47;67.78;98859.67;130255;1271;108767;-76
2022/01/31 12:30:54;;;;;;;15.90;7.80;;;;;;;2.43;67.30;98856.52;130223;1271;108469;-76
2022/01/31 12:33:59;;;;;;;66.70;30.80;;;;;;;2.49;68.67;98853.39;130152;1271;108762;-74
2022/01/31 12:37:15;;;;;;;18.70;9.30;;;;;;;2.61;68.44;98852.84;130781;1270;108869;-76
2022/01/31 12:40:29;;;;;;;20.50;10.60;;;;;;;2.60;67.70;98855.18;130358;1270;108918;-78
2022/01/31 12:43:48;;;;;;;18.00;8.20;;;;;;;2.59;66.99;98857.56;130429;1270;108633;-80
2022/01/31 12:47:05;;;;;;;25.50;9.00;;;;;;;2.51;66.77;98856.21;130277;1270;108774;-80
2022/01/31 12:50:25;;;;;;;24.30;12.40;;;;;;;2.51;68.19;98853.23;130307;1271;107491;-80
2022/01/31 12:53:47;;;;;;;17.20;6.30;;;;;;;2.64;68.51;98860.98;130661;1270;108696;-83
2022/01/31 12:56:54;;;;;;;16.10;5.90;;;;;;;2.74;68.43;98861.31;130482;1271;106791;-80
2022/01/31 13:00:00;;;;;;;15.00;7.10;;;;;;;2.73;67.96;98856.08;130191;1271;108739;-78
2022/01/31 13:03:05;;;;;;;16.10;7.90;;;;;;;2.74;68.87;98848.48;130156;1271;107774;-82
2022/01/31 13:06:28;;;;;;;21.20;11.90;;;;;;;2.87;69.05;98841.23;130424;1270;108683;-79
2022/01/31 13:09:35;;;;;;;19.80;9.60;;;;;;;2.98;69.06;98845.14;130362;1271;108971;-76
2022/01/31 13:12:41;;;;;;;27.80;13.60;;;;;;;3.02;68.95;98848.69;130149;1271;109123;-75
2022/01/31 13:15:46;;;;;;;17.30;6.30;;;;;;;2.99;68.65;98850.88;130108;1271;108762;-76
2022/01/31 13:18:52;;;;;;;15.80;6.40;;;;;;;2.91;68.86;98847.36;130092;1271;108802;-74
2022/01/31 13:21:59;;;;;;;13.30;5.80;;;;;;;2.88;69.17;98845.30;130328;1271;108855;-76
2022/01/31 13:25:08;;;;;;;13.90;6.40;;;;;;;2.85;68.96;98848.45;130456;1270;107745;-75
2022/01/31 13:28:14;;;;;;;16.10;6.60;;;;;;;2.76;68.81;98846.21;130502;1270;108926;-75
2022/01/31 13:31:19;;;;;;;23.70;9.60;;;;;;;2.66;68.68;98841.50;130202;1270;108653;-77
2022/01/31 13:34:41;;;;;;;19.20;6.70;;;;;;;2.54;69.06;98837.65;130288;1270;108828;-76
2022/01/31 13:37:54;;;;;;;20.10;7.40;;;;;;;2.44;68.38;98838.59;130522;1271;108728;-76
2022/01/31 13:41:00;;;;;;;23.10;6.90;;;;;;;2.30;68.64;98847.34;130346;1270;108713;-77
2022/01/31 13:44:06;;;;;;;17.40;7.80;;;;;;;2.21;68.69;98854.77;130217;1270;108831;-76
2022/01/31 13:47:12;;;;;;;19.80;7.60;;;;;;;2.10;68.84;98862.38;130124;1270;107413;-80
2022/01/31 13:50:21;;;;;;;15.80;5.80;;;;;;;2.06;68.40;98866.98;130368;1270;108770;-80
2022/01/31 13:53:34;;;;;;;22.00;7.10;;;;;;;2.01;68.56;98867.41;130115;1272;108568;-74
2022/01/31 13:56:48;;;;;;;24.40;10.50;;;;;;;2.01;69.10;98868.64;130100;1271;108842;-82
2022/01/31 13:59:54;;;;;;;21.40;8.50;;;;;;;2.06;69.05;98871.52;130181;1271;108979;-83
2022/01/31 14:03:12;;;;;;;35.60;16.00;;;;;;;2.07;68.66;98871.47;130330;1270;108970;-78
2022/01/31 14:06:20;;;;;;;34.30;10.40;;;;;;;2.00;68.61;98869.77;130452;1271;108792;-79
2022/01/31 14:09:33;;;;;;;21.50;8.20;;;;;;;1.94;69.02;98872.32;130435;1271;108978;-78
2022/01/31 14:12:38;;;;;;;43.90;12.30;;;;;;;1.92;69.35;98870.77;130362;1271;108902;-76
2022/01/31 14:15:47;;;;;;;38.30;12.60;;;;;;;1.91;69.18;98870.86;130215;1271;108321;-77
2022/01/31 14:18:55;;;;;;;35.40;15.40;;;;;;;1.85;69.34;98869.08;130156;1271;108977;-76
2022/01/31 14:22:01;;;;;;;40.20;11.30;;;;;;;1.82;69.15;98869.89;130304;1271;108704;-74
2022/01/31 14:25:12;;;;;;;21.20;7.80;;;;;;;1.76;69.34;98869.90;130368;1271;108992;-72
2022/01/31 14:28:18;;;;;;;24.60;8.90;;;;;;;1.68;69.20;98872.99;130366;1271;108190;-77
2022/01/31 14:31:32;;;;;;;30.10;11.50;;;;;;;1.62;69.57;98877.06;130397;1270;108943;-74
2022/01/31 14:34:37;;;;;;;43.40;13.50;;;;;;;1.56;69.76;98878.88;130210;1271;108963;-77
2022/01/31 14:37:52;;;;;;;29.20;9.50;;;;;;;1.54;69.67;98881.21;130279;1270;107431;-74
2022/01/31 14:41:15;;;;;;;51.70;13.40;;;;;;;1.53;69.69;98882.52;130381;1271;108840;-78
2022/01/31 14:47:48;;;;;;;129.40;28.70;;;;;;;1.59;69.89;98882.19;130309;1270;108793;-77
2022/01/31 14:50:53;;;;;;;33.90;11.00;;;;;;;1.59;69.90;98879.23;130168;1270;109027;-77